sensor_id;sensor_type;location;lat;lon;timestamp;temperature;humidity
26107;DHT22;13866;50.748;12.630;2023-07-29T00:00:44;18.50;99.90
26107;DHT22;13866;50.748;12.630;2023-07-29T00:03:10;18.50;99.90
26107;DHT22;13866;50.748;12.630;2023-07-29T00:05:37;18.50;99.90
26107;DHT22;13866;50.748;12.630;2023-07-29T00:08:02;18.50;99.90
26107;DHT22;13866;50.748;12.630;2023-07-29T00:10:28;18.50;99.90
26107;DHT22;13866;50.748;12.630;2023-07-29T00:12:54;18.40;99.90
26107;DHT22;13866;50.748;12.630;2023-07-29T00:15:19;18.40;99.90
26107;DHT22;13866;50.748;12.630;2023-07-29T00:17:45;18.40;99.90
26107;DHT22;13866;50.748;12.630;2023-07-29T00:20:10;18.40;99.90
26107;DHT22;13866;50.748;12.630;2023-07-29T00:22:36;18.40;99.90
26107;DHT22;13866;50.748;12.630;2023-07-29T00:25:01;18.40;99.90
26107;DHT22;13866;50.748;12.630;2023-07-29T00:27:27;18.40;99.90
26107;DHT22;13866;50.748;12.630;2023-07-29T00:29:53;18.30;99.90
26107;DHT22;13866;50.748;12.630;2023-07-29T00:32:18;18.30;99.90
26107;DHT22;13866;50.748;12.630;2023-07-29T00:34:44;18.20;99.90
26107;DHT22;13866;50.748;12.630;2023-07-29T00:37:09;18.20;99.90
26107;DHT22;13866;50.748;12.630;2023-07-29T00:39:36;18.10;99.90
26107;DHT22;13866;50.748;12.630;2023-07-29T00:42:02;18.10;99.90
26107;DHT22;13866;50.748;12.630;2023-07-29T00:44:28;18.10;99.90
26107;DHT22;13866;50.748;12.630;2023-07-29T00:46:54;18.10;99.90
26107;DHT22;13866;50.748;12.630;2023-07-29T00:49:21;18.10;99.90
26107;DHT22;13866;50.748;12.630;2023-07-29T00:51:46;18.00;99.90
26107;DHT22;13866;50.748;12.630;2023-07-29T00:54:13;18.00;99.90
26107;DHT22;13866;50.748;12.630;2023-07-29T00:56:38;18.00;99.90
26107;DHT22;13866;50.748;12.630;2023-07-29T00:59:04;17.90;99.90
26107;DHT22;13866;50.748;12.630;2023-07-29T01:01:30;17.90;99.90
26107;DHT22;13866;50.748;12.630;2023-07-29T01:03:56;17.90;99.90
26107;DHT22;13866;50.748;12.630;2023-07-29T01:06:46;17.90;99.90
26107;DHT22;13866;50.748;12.630;2023-07-29T01:09:33;17.90;99.90
26107;DHT22;13866;50.748;12.630;2023-07-29T01:12:27;17.90;99.90
26107;DHT22;13866;50.748;12.630;2023-07-29T01:15:19;17.80;99.90
26107;DHT22;13866;50.748;12.630;2023-07-29T01:18:04;17.80;99.90
26107;DHT22;13866;50.748;12.630;2023-07-29T01:20:33;17.70;99.90
26107;DHT22;13866;50.748;12.630;2023-07-29T01:22:59;17.70;99.90
26107;DHT22;13866;50.748;12.630;2023-07-29T01:25:24;17.70;99.90
26107;DHT22;13866;50.748;12.630;2023-07-29T01:27:52;17.70;99.90
26107;DHT22;13866;50.748;12.630;2023-07-29T01:30:19;17.70;99.90
26107;DHT22;13866;50.748;12.630;2023-07-29T01:35:33;17.70;99.90
26107;DHT22;13866;50.748;12.630;2023-07-29T01:38:17;17.70;99.90
26107;DHT22;13866;50.748;12.630;2023-07-29T01:40:44;17.70;99.90
26107;DHT22;13866;50.748;12.630;2023-07-29T01:43:10;17.70;99.90
26107;DHT22;13866;50.748;12.630;2023-07-29T01:45:36;17.70;99.90
26107;DHT22;13866;50.748;12.630;2023-07-29T01:48:07;17.70;99.90
26107;DHT22;13866;50.748;12.630;2023-07-29T01:50:33;17.70;99.90
26107;DHT22;13866;50.748;12.630;2023-07-29T01:52:59;17.70;99.90
26107;DHT22;13866;50.748;12.630;2023-07-29T01:55:24;17.70;99.90
26107;DHT22;13866;50.748;12.630;2023-07-29T01:57:50;17.70;99.90
26107;DHT22;13866;50.748;12.630;2023-07-29T02:00:20;17.70;99.90
26107;DHT22;13866;50.748;12.630;2023-07-29T02:02:46;17.70;99.90
26107;DHT22;13866;50.748;12.630;2023-07-29T02:05:11;17.70;99.90
26107;DHT22;13866;50.748;12.630;2023-07-29T02:07:37;17.70;99.90
26107;DHT22;13866;50.748;12.630;2023-07-29T02:10:03;17.70;99.90
26107;DHT22;13866;50.748;12.630;2023-07-29T02:12:28;17.60;99.90
26107;DHT22;13866;50.748;12.630;2023-07-29T02:14:54;17.70;99.90
26107;DHT22;13866;50.748;12.630;2023-07-29T02:17:19;17.80;99.90
26107;DHT22;13866;50.748;12.630;2023-07-29T02:19:45;17.80;99.90
26107;DHT22;13866;50.748;12.630;2023-07-29T02:22:13;17.80;99.90
26107;DHT22;13866;50.748;12.630;2023-07-29T02:24:39;17.90;99.90
26107;DHT22;13866;50.748;12.630;2023-07-29T02:27:05;17.90;99.90
26107;DHT22;13866;50.748;12.630;2023-07-29T02:29:30;17.90;99.90
26107;DHT22;13866;50.748;12.630;2023-07-29T02:31:56;17.90;99.90
26107;DHT22;13866;50.748;12.630;2023-07-29T02:34:21;17.90;99.90
26107;DHT22;13866;50.748;12.630;2023-07-29T02:36:47;17.90;99.90
26107;DHT22;13866;50.748;12.630;2023-07-29T02:39:12;17.90;99.90
26107;DHT22;13866;50.748;12.630;2023-07-29T02:41:38;17.90;99.90
26107;DHT22;13866;50.748;12.630;2023-07-29T02:44:05;17.90;99.90
26107;DHT22;13866;50.748;12.630;2023-07-29T02:46:30;17.90;99.90
26107;DHT22;13866;50.748;12.630;2023-07-29T02:48:56;17.90;99.90
26107;DHT22;13866;50.748;12.630;2023-07-29T02:51:21;18.00;99.90
26107;DHT22;13866;50.748;12.630;2023-07-29T02:53:47;18.00;99.90
26107;DHT22;13866;50.748;12.630;2023-07-29T02:56:12;18.00;99.90
26107;DHT22;13866;50.748;12.630;2023-07-29T02:58:38;18.00;99.90
26107;DHT22;13866;50.748;12.630;2023-07-29T03:01:04;18.00;99.90
26107;DHT22;13866;50.748;12.630;2023-07-29T03:03:31;18.00;99.90
26107;DHT22;13866;50.748;12.630;2023-07-29T03:06:08;18.10;99.90
26107;DHT22;13866;50.748;12.630;2023-07-29T03:08:34;18.10;99.90
26107;DHT22;13866;50.748;12.630;2023-07-29T03:11:06;18.00;99.90
26107;DHT22;13866;50.748;12.630;2023-07-29T03:13:32;18.00;99.90
26107;DHT22;13866;50.748;12.630;2023-07-29T03:16:08;18.10;99.90
26107;DHT22;13866;50.748;12.630;2023-07-29T03:18:34;18.00;99.90
26107;DHT22;13866;50.748;12.630;2023-07-29T03:21:00;18.00;99.90
26107;DHT22;13866;50.748;12.630;2023-07-29T03:23:25;18.10;99.90
26107;DHT22;13866;50.748;12.630;2023-07-29T03:25:51;18.10;99.90
26107;DHT22;13866;50.748;12.630;2023-07-29T03:28:22;18.10;99.90
26107;DHT22;13866;50.748;12.630;2023-07-29T03:30:48;18.10;99.90
26107;DHT22;13866;50.748;12.630;2023-07-29T03:33:13;18.10;99.90
26107;DHT22;13866;50.748;12.630;2023-07-29T03:35:39;18.10;99.90
26107;DHT22;13866;50.748;12.630;2023-07-29T03:38:04;18.10;99.90
26107;DHT22;13866;50.748;12.630;2023-07-29T03:40:30;18.10;99.90
26107;DHT22;13866;50.748;12.630;2023-07-29T03:42:55;18.10;99.90
26107;DHT22;13866;50.748;12.630;2023-07-29T03:45:21;18.10;99.90
26107;DHT22;13866;50.748;12.630;2023-07-29T03:47:46;18.20;99.90
26107;DHT22;13866;50.748;12.630;2023-07-29T03:50:12;18.20;99.90
26107;DHT22;13866;50.748;12.630;2023-07-29T03:52:37;18.20;99.90
26107;DHT22;13866;50.748;12.630;2023-07-29T03:55:03;18.20;99.90
26107;DHT22;13866;50.748;12.630;2023-07-29T03:57:28;18.20;99.90
26107;DHT22;13866;50.748;12.630;2023-07-29T03:59:55;18.20;99.90
26107;DHT22;13866;50.748;12.630;2023-07-29T04:02:20;18.20;99.90
26107;DHT22;13866;50.748;12.630;2023-07-29T04:04:46;18.20;99.90
26107;DHT22;13866;50.748;12.630;2023-07-29T04:07:13;18.20;99.90
26107;DHT22;13866;50.748;12.630;2023-07-29T04:09:39;18.20;99.90
26107;DHT22;13866;50.748;12.630;2023-07-29T04:12:05;18.30;99.90
26107;DHT22;13866;50.748;12.630;2023-07-29T04:14:30;18.30;99.90
26107;DHT22;13866;50.748;12.630;2023-07-29T04:16:56;18.30;99.90
26107;DHT22;13866;50.748;12.630;2023-07-29T04:19:21;18.30;99.90
26107;DHT22;13866;50.748;12.630;2023-07-29T04:21:47;18.30;99.90
26107;DHT22;13866;50.748;12.630;2023-07-29T04:24:13;18.30;99.90
26107;DHT22;13866;50.748;12.630;2023-07-29T04:26:38;18.30;99.90
26107;DHT22;13866;50.748;12.630;2023-07-29T04:29:04;18.40;99.90
26107;DHT22;13866;50.748;12.630;2023-07-29T04:31:30;18.40;99.90
26107;DHT22;13866;50.748;12.630;2023-07-29T04:33:55;18.40;99.90
26107;DHT22;13866;50.748;12.630;2023-07-29T04:36:21;18.40;99.90
26107;DHT22;13866;50.748;12.630;2023-07-29T04:38:46;18.50;99.90
26107;DHT22;13866;50.748;12.630;2023-07-29T04:41:12;18.50;99.90
26107;DHT22;13866;50.748;12.630;2023-07-29T04:43:37;18.50;99.90
26107;DHT22;13866;50.748;12.630;2023-07-29T04:46:06;18.50;99.90
26107;DHT22;13866;50.748;12.630;2023-07-29T04:48:32;18.60;99.90
26107;DHT22;13866;50.748;12.630;2023-07-29T04:50:58;18.60;99.90
26107;DHT22;13866;50.748;12.630;2023-07-29T04:53:23;18.60;99.90
26107;DHT22;13866;50.748;12.630;2023-07-29T04:55:49;18.60;99.90
26107;DHT22;13866;50.748;12.630;2023-07-29T04:58:14;18.60;99.90
26107;DHT22;13866;50.748;12.630;2023-07-29T05:00:40;18.70;99.90
26107;DHT22;13866;50.748;12.630;2023-07-29T05:03:05;18.60;99.90
26107;DHT22;13866;50.748;12.630;2023-07-29T05:05:31;18.70;99.90
26107;DHT22;13866;50.748;12.630;2023-07-29T05:07:57;18.70;99.90
26107;DHT22;13866;50.748;12.630;2023-07-29T05:10:22;18.70;99.90
26107;DHT22;13866;50.748;12.630;2023-07-29T05:12:49;18.80;99.90
26107;DHT22;13866;50.748;12.630;2023-07-29T05:15:14;18.90;99.90
26107;DHT22;13866;50.748;12.630;2023-07-29T05:17:40;19.00;99.90
26107;DHT22;13866;50.748;12.630;2023-07-29T05:20:06;19.10;99.90
26107;DHT22;13866;50.748;12.630;2023-07-29T05:22:32;19.10;99.90
26107;DHT22;13866;50.748;12.630;2023-07-29T05:24:57;19.10;99.90
26107;DHT22;13866;50.748;12.630;2023-07-29T05:27:23;19.20;99.90
26107;DHT22;13866;50.748;12.630;2023-07-29T05:29:48;19.20;99.90
26107;DHT22;13866;50.748;12.630;2023-07-29T05:32:14;19.30;99.90
26107;DHT22;13866;50.748;12.630;2023-07-29T05:34:39;19.30;99.90
26107;DHT22;13866;50.748;12.630;2023-07-29T05:37:04;19.30;99.90
26107;DHT22;13866;50.748;12.630;2023-07-29T05:39:31;19.40;99.90
26107;DHT22;13866;50.748;12.630;2023-07-29T05:41:57;19.40;99.90
26107;DHT22;13866;50.748;12.630;2023-07-29T05:44:23;19.50;99.90
26107;DHT22;13866;50.748;12.630;2023-07-29T05:46:48;19.50;99.90
26107;DHT22;13866;50.748;12.630;2023-07-29T05:49:14;19.60;99.90
26107;DHT22;13866;50.748;12.630;2023-07-29T05:51:39;19.70;99.90
26107;DHT22;13866;50.748;12.630;2023-07-29T05:54:05;19.80;99.90
26107;DHT22;13866;50.748;12.630;2023-07-29T05:56:30;19.80;99.90
26107;DHT22;13866;50.748;12.630;2023-07-29T05:58:57;19.90;99.90
26107;DHT22;13866;50.748;12.630;2023-07-29T06:01:22;20.00;99.90
26107;DHT22;13866;50.748;12.630;2023-07-29T06:03:48;19.90;99.90
26107;DHT22;13866;50.748;12.630;2023-07-29T06:06:13;19.80;99.90
26107;DHT22;13866;50.748;12.630;2023-07-29T06:08:39;20.00;99.90
26107;DHT22;13866;50.748;12.630;2023-07-29T06:11:04;20.20;99.90
26107;DHT22;13866;50.748;12.630;2023-07-29T06:13:32;20.60;99.90
26107;DHT22;13866;50.748;12.630;2023-07-29T06:15:57;21.00;99.90
26107;DHT22;13866;50.748;12.630;2023-07-29T06:18:23;21.50;99.90
26107;DHT22;13866;50.748;12.630;2023-07-29T06:20:48;21.40;99.90
26107;DHT22;13866;50.748;12.630;2023-07-29T06:23:14;21.40;99.90
26107;DHT22;13866;50.748;12.630;2023-07-29T06:25:39;21.60;99.90
26107;DHT22;13866;50.748;12.630;2023-07-29T06:28:05;21.70;99.90
26107;DHT22;13866;50.748;12.630;2023-07-29T06:30:30;21.80;99.90
26107;DHT22;13866;50.748;12.630;2023-07-29T06:32:56;21.70;99.90
26107;DHT22;13866;50.748;12.630;2023-07-29T06:35:22;21.80;99.90
26107;DHT22;13866;50.748;12.630;2023-07-29T06:37:47;21.80;99.90
26107;DHT22;13866;50.748;12.630;2023-07-29T06:40:13;22.00;99.90
26107;DHT22;13866;50.748;12.630;2023-07-29T06:42:38;21.60;99.90
26107;DHT22;13866;50.748;12.630;2023-07-29T06:45:05;21.30;99.90
26107;DHT22;13866;50.748;12.630;2023-07-29T06:47:30;21.20;99.90
26107;DHT22;13866;50.748;12.630;2023-07-29T06:49:56;21.10;99.90
26107;DHT22;13866;50.748;12.630;2023-07-29T06:52:22;20.90;99.90
26107;DHT22;13866;50.748;12.630;2023-07-29T06:54:47;20.90;99.90
26107;DHT22;13866;50.748;12.630;2023-07-29T06:57:12;21.10;99.90
26107;DHT22;13866;50.748;12.630;2023-07-29T06:59:38;21.40;99.90
26107;DHT22;13866;50.748;12.630;2023-07-29T07:02:04;21.60;99.90
26107;DHT22;13866;50.748;12.630;2023-07-29T07:04:29;22.10;99.90
26107;DHT22;13866;50.748;12.630;2023-07-29T07:06:55;22.50;99.90
26107;DHT22;13866;50.748;12.630;2023-07-29T07:09:20;22.50;99.90
26107;DHT22;13866;50.748;12.630;2023-07-29T07:11:46;22.40;99.90
26107;DHT22;13866;50.748;12.630;2023-07-29T07:14:12;22.70;99.90
26107;DHT22;13866;50.748;12.630;2023-07-29T07:16:38;22.60;99.90
26107;DHT22;13866;50.748;12.630;2023-07-29T07:19:04;22.90;99.90
26107;DHT22;13866;50.748;12.630;2023-07-29T07:21:30;23.20;99.90
26107;DHT22;13866;50.748;12.630;2023-07-29T07:23:57;23.60;99.90
26107;DHT22;13866;50.748;12.630;2023-07-29T07:26:23;23.70;99.90
26107;DHT22;13866;50.748;12.630;2023-07-29T07:28:48;23.70;99.90
26107;DHT22;13866;50.748;12.630;2023-07-29T07:31:14;23.80;99.90
26107;DHT22;13866;50.748;12.630;2023-07-29T07:33:41;23.80;99.90
26107;DHT22;13866;50.748;12.630;2023-07-29T07:36:07;23.70;99.90
26107;DHT22;13866;50.748;12.630;2023-07-29T07:38:32;23.60;99.90
26107;DHT22;13866;50.748;12.630;2023-07-29T07:40:58;23.60;99.90
26107;DHT22;13866;50.748;12.630;2023-07-29T07:43:23;23.60;99.90
26107;DHT22;13866;50.748;12.630;2023-07-29T07:45:49;23.60;99.90
26107;DHT22;13866;50.748;12.630;2023-07-29T07:48:15;23.80;99.90
26107;DHT22;13866;50.748;12.630;2023-07-29T07:50:42;23.80;99.90
26107;DHT22;13866;50.748;12.630;2023-07-29T07:53:08;23.80;99.90
26107;DHT22;13866;50.748;12.630;2023-07-29T07:55:34;23.60;99.90
26107;DHT22;13866;50.748;12.630;2023-07-29T07:57:59;23.60;99.90
26107;DHT22;13866;50.748;12.630;2023-07-29T08:00:25;23.80;99.90
26107;DHT22;13866;50.748;12.630;2023-07-29T08:02:50;23.60;99.90
26107;DHT22;13866;50.748;12.630;2023-07-29T08:05:16;23.20;99.90
26107;DHT22;13866;50.748;12.630;2023-07-29T08:07:41;23.00;99.90
26107;DHT22;13866;50.748;12.630;2023-07-29T08:10:07;22.80;99.90
26107;DHT22;13866;50.748;12.630;2023-07-29T08:12:33;22.70;99.90
26107;DHT22;13866;50.748;12.630;2023-07-29T08:14:58;22.70;99.90
26107;DHT22;13866;50.748;12.630;2023-07-29T08:17:24;22.80;99.90
26107;DHT22;13866;50.748;12.630;2023-07-29T08:19:49;23.00;99.90
26107;DHT22;13866;50.748;12.630;2023-07-29T08:22:15;23.10;99.90
26107;DHT22;13866;50.748;12.630;2023-07-29T08:24:42;23.20;99.90
26107;DHT22;13866;50.748;12.630;2023-07-29T08:27:08;23.30;99.90
26107;DHT22;13866;50.748;12.630;2023-07-29T08:29:33;23.20;99.90
26107;DHT22;13866;50.748;12.630;2023-07-29T08:31:59;23.10;99.90
26107;DHT22;13866;50.748;12.630;2023-07-29T08:34:24;23.30;99.90
26107;DHT22;13866;50.748;12.630;2023-07-29T08:36:50;23.40;99.90
26107;DHT22;13866;50.748;12.630;2023-07-29T08:39:15;23.20;99.90
26107;DHT22;13866;50.748;12.630;2023-07-29T08:41:51;23.10;99.90
26107;DHT22;13866;50.748;12.630;2023-07-29T08:44:21;22.90;99.90
26107;DHT22;13866;50.748;12.630;2023-07-29T08:46:48;22.70;99.90
26107;DHT22;13866;50.748;12.630;2023-07-29T08:49:15;22.60;99.90
26107;DHT22;13866;50.748;12.630;2023-07-29T08:51:42;22.60;99.90
26107;DHT22;13866;50.748;12.630;2023-07-29T08:54:09;22.60;99.90
26107;DHT22;13866;50.748;12.630;2023-07-29T08:56:36;22.50;99.90
26107;DHT22;13866;50.748;12.630;2023-07-29T08:59:01;22.60;99.90
26107;DHT22;13866;50.748;12.630;2023-07-29T09:01:27;22.70;99.90
26107;DHT22;13866;50.748;12.630;2023-07-29T09:03:53;22.90;99.90
26107;DHT22;13866;50.748;12.630;2023-07-29T09:06:19;23.10;99.90
26107;DHT22;13866;50.748;12.630;2023-07-29T09:08:49;23.10;99.90
26107;DHT22;13866;50.748;12.630;2023-07-29T09:11:15;23.40;99.90
26107;DHT22;13866;50.748;12.630;2023-07-29T09:13:42;23.80;99.70
26107;DHT22;13866;50.748;12.630;2023-07-29T09:16:09;24.10;98.90
26107;DHT22;13866;50.748;12.630;2023-07-29T09:18:34;23.90;97.60
26107;DHT22;13866;50.748;12.630;2023-07-29T09:21:00;23.50;99.90
26107;DHT22;13866;50.748;12.630;2023-07-29T09:23:38;23.40;99.90
26107;DHT22;13866;50.748;12.630;2023-07-29T09:26:05;23.30;99.90
26107;DHT22;13866;50.748;12.630;2023-07-29T09:28:38;23.20;99.90
26107;DHT22;13866;50.748;12.630;2023-07-29T09:31:04;23.20;99.90
26107;DHT22;13866;50.748;12.630;2023-07-29T09:33:34;23.20;99.90
26107;DHT22;13866;50.748;12.630;2023-07-29T09:36:09;23.10;99.90
26107;DHT22;13866;50.748;12.630;2023-07-29T09:38:35;22.70;99.90
26107;DHT22;13866;50.748;12.630;2023-07-29T09:41:03;22.60;99.90
26107;DHT22;13866;50.748;12.630;2023-07-29T09:43:31;22.50;99.90
26107;DHT22;13866;50.748;12.630;2023-07-29T09:46:00;22.40;99.90
26107;DHT22;13866;50.748;12.630;2023-07-29T09:48:26;22.30;99.90
26107;DHT22;13866;50.748;12.630;2023-07-29T09:50:54;22.20;99.90
26107;DHT22;13866;50.748;12.630;2023-07-29T09:53:20;22.20;99.90
26107;DHT22;13866;50.748;12.630;2023-07-29T09:55:47;22.20;99.90
26107;DHT22;13866;50.748;12.630;2023-07-29T09:58:14;22.20;99.90
26107;DHT22;13866;50.748;12.630;2023-07-29T10:00:39;22.30;99.90
26107;DHT22;13866;50.748;12.630;2023-07-29T10:03:06;22.30;99.90
26107;DHT22;13866;50.748;12.630;2023-07-29T10:05:32;22.40;99.90
26107;DHT22;13866;50.748;12.630;2023-07-29T10:08:00;22.40;99.90
26107;DHT22;13866;50.748;12.630;2023-07-29T10:10:27;22.50;99.90
26107;DHT22;13866;50.748;12.630;2023-07-29T10:12:53;22.60;99.90
26107;DHT22;13866;50.748;12.630;2023-07-29T10:15:21;22.80;99.90
26107;DHT22;13866;50.748;12.630;2023-07-29T10:17:46;22.80;99.90
26107;DHT22;13866;50.748;12.630;2023-07-29T10:20:13;22.80;99.90
26107;DHT22;13866;50.748;12.630;2023-07-29T10:22:40;22.80;99.90
26107;DHT22;13866;50.748;12.630;2023-07-29T10:25:17;23.00;99.90
26107;DHT22;13866;50.748;12.630;2023-07-29T10:27:43;23.20;99.90
26107;DHT22;13866;50.748;12.630;2023-07-29T10:30:12;23.20;99.90
26107;DHT22;13866;50.748;12.630;2023-07-29T10:32:45;23.30;99.90
26107;DHT22;13866;50.748;12.630;2023-07-29T10:35:12;23.30;99.90
26107;DHT22;13866;50.748;12.630;2023-07-29T10:37:38;23.20;99.90
26107;DHT22;13866;50.748;12.630;2023-07-29T10:40:06;23.20;99.90
26107;DHT22;13866;50.748;12.630;2023-07-29T10:42:32;23.10;99.90
26107;DHT22;13866;50.748;12.630;2023-07-29T10:44:58;22.90;99.90
26107;DHT22;13866;50.748;12.630;2023-07-29T10:47:28;22.80;99.90
26107;DHT22;13866;50.748;12.630;2023-07-29T10:49:56;22.70;99.90
26107;DHT22;13866;50.748;12.630;2023-07-29T10:55:00;22.30;99.90
26107;DHT22;13866;50.748;12.630;2023-07-29T10:59:58;22.20;99.90
26107;DHT22;13866;50.748;12.630;2023-07-29T11:02:31;22.10;99.90
26107;DHT22;13866;50.748;12.630;2023-07-29T11:04:58;22.10;99.90
26107;DHT22;13866;50.748;12.630;2023-07-29T11:07:25;22.00;99.90
26107;DHT22;13866;50.748;12.630;2023-07-29T11:09:57;21.70;99.90
26107;DHT22;13866;50.748;12.630;2023-07-29T11:15:12;21.50;99.90
26107;DHT22;13866;50.748;12.630;2023-07-29T11:20:08;21.60;99.90
26107;DHT22;13866;50.748;12.630;2023-07-29T11:22:34;21.70;99.90
26107;DHT22;13866;50.748;12.630;2023-07-29T11:24:59;21.70;99.90
26107;DHT22;13866;50.748;12.630;2023-07-29T11:27:25;21.80;99.90
26107;DHT22;13866;50.748;12.630;2023-07-29T11:30:03;21.90;99.90
26107;DHT22;13866;50.748;12.630;2023-07-29T11:32:30;22.00;99.90
26107;DHT22;13866;50.748;12.630;2023-07-29T11:34:56;22.00;99.90
26107;DHT22;13866;50.748;12.630;2023-07-29T11:37:22;22.20;99.90
26107;DHT22;13866;50.748;12.630;2023-07-29T11:39:47;22.10;99.90
26107;DHT22;13866;50.748;12.630;2023-07-29T11:42:16;22.10;99.90
26107;DHT22;13866;50.748;12.630;2023-07-29T11:44:42;22.10;99.90
26107;DHT22;13866;50.748;12.630;2023-07-29T11:47:12;21.90;99.90
26107;DHT22;13866;50.748;12.630;2023-07-29T11:49:39;21.50;99.90
26107;DHT22;13866;50.748;12.630;2023-07-29T11:52:09;20.90;99.90
26107;DHT22;13866;50.748;12.630;2023-07-29T11:54:35;20.40;99.90
26107;DHT22;13866;50.748;12.630;2023-07-29T11:57:07;19.90;99.90
26107;DHT22;13866;50.748;12.630;2023-07-29T11:59:37;19.60;99.90
26107;DHT22;13866;50.748;12.630;2023-07-29T12:02:15;19.50;99.90
26107;DHT22;13866;50.748;12.630;2023-07-29T12:04:41;19.50;99.90
26107;DHT22;13866;50.748;12.630;2023-07-29T12:07:08;19.40;99.90
26107;DHT22;13866;50.748;12.630;2023-07-29T12:09:34;19.30;99.90
26107;DHT22;13866;50.748;12.630;2023-07-29T12:12:02;19.40;99.90
26107;DHT22;13866;50.748;12.630;2023-07-29T12:14:28;19.70;99.90
26107;DHT22;13866;50.748;12.630;2023-07-29T12:16:54;20.10;99.90
26107;DHT22;13866;50.748;12.630;2023-07-29T12:19:20;20.40;99.90
26107;DHT22;13866;50.748;12.630;2023-07-29T12:21:47;20.50;99.90
26107;DHT22;13866;50.748;12.630;2023-07-29T12:24:13;20.60;99.90
26107;DHT22;13866;50.748;12.630;2023-07-29T12:26:40;20.70;99.90
26107;DHT22;13866;50.748;12.630;2023-07-29T12:29:18;20.80;99.90
26107;DHT22;13866;50.748;12.630;2023-07-29T12:31:46;20.80;99.90
26107;DHT22;13866;50.748;12.630;2023-07-29T12:34:19;21.00;99.90
26107;DHT22;13866;50.748;12.630;2023-07-29T12:36:50;21.30;99.90
26107;DHT22;13866;50.748;12.630;2023-07-29T12:39:26;21.50;99.90
26107;DHT22;13866;50.748;12.630;2023-07-29T12:41:54;21.90;99.90
26107;DHT22;13866;50.748;12.630;2023-07-29T12:44:20;22.20;99.90
26107;DHT22;13866;50.748;12.630;2023-07-29T12:46:45;22.50;99.90
26107;DHT22;13866;50.748;12.630;2023-07-29T12:49:11;22.60;99.90
26107;DHT22;13866;50.748;12.630;2023-07-29T12:51:37;22.70;99.90
26107;DHT22;13866;50.748;12.630;2023-07-29T12:54:03;22.70;99.90
26107;DHT22;13866;50.748;12.630;2023-07-29T12:56:30;23.10;99.90
26107;DHT22;13866;50.748;12.630;2023-07-29T12:58:57;23.40;99.90
26107;DHT22;13866;50.748;12.630;2023-07-29T13:01:23;23.60;99.90
26107;DHT22;13866;50.748;12.630;2023-07-29T13:03:49;23.80;99.90
26107;DHT22;13866;50.748;12.630;2023-07-29T13:06:14;23.80;99.90
26107;DHT22;13866;50.748;12.630;2023-07-29T13:08:41;23.90;99.90
26107;DHT22;13866;50.748;12.630;2023-07-29T13:11:06;23.90;99.90
26107;DHT22;13866;50.748;12.630;2023-07-29T13:13:32;24.00;99.90
26107;DHT22;13866;50.748;12.630;2023-07-29T13:15:58;24.00;99.90
26107;DHT22;13866;50.748;12.630;2023-07-29T13:18:23;24.20;99.90
26107;DHT22;13866;50.748;12.630;2023-07-29T13:20:49;24.20;99.90
26107;DHT22;13866;50.748;12.630;2023-07-29T13:23:15;24.00;99.90
26107;DHT22;13866;50.748;12.630;2023-07-29T13:25:41;24.20;99.90
26107;DHT22;13866;50.748;12.630;2023-07-29T13:28:06;24.30;99.90
26107;DHT22;13866;50.748;12.630;2023-07-29T13:30:32;24.50;99.90
26107;DHT22;13866;50.748;12.630;2023-07-29T13:32:58;24.60;99.90
26107;DHT22;13866;50.748;12.630;2023-07-29T13:35:24;24.70;99.90
26107;DHT22;13866;50.748;12.630;2023-07-29T13:37:49;24.40;99.90
26107;DHT22;13866;50.748;12.630;2023-07-29T13:40:15;24.60;99.90
26107;DHT22;13866;50.748;12.630;2023-07-29T13:42:40;24.30;99.90
26107;DHT22;13866;50.748;12.630;2023-07-29T13:45:06;24.70;99.90
26107;DHT22;13866;50.748;12.630;2023-07-29T13:47:32;24.90;99.90
26107;DHT22;13866;50.748;12.630;2023-07-29T13:49:57;25.20;98.80
26107;DHT22;13866;50.748;12.630;2023-07-29T13:52:23;25.30;93.50
26107;DHT22;13866;50.748;12.630;2023-07-29T13:54:48;25.20;91.70
26107;DHT22;13866;50.748;12.630;2023-07-29T13:57:14;25.20;92.60
26107;DHT22;13866;50.748;12.630;2023-07-29T13:59:39;25.20;88.70
26107;DHT22;13866;50.748;12.630;2023-07-29T14:02:05;24.90;87.70
26107;DHT22;13866;50.748;12.630;2023-07-29T14:04:32;24.90;89.30
26107;DHT22;13866;50.748;12.630;2023-07-29T14:06:58;25.10;88.00
26107;DHT22;13866;50.748;12.630;2023-07-29T14:09:24;25.20;85.30
26107;DHT22;13866;50.748;12.630;2023-07-29T14:11:50;25.50;85.60
26107;DHT22;13866;50.748;12.630;2023-07-29T14:14:15;25.50;83.50
26107;DHT22;13866;50.748;12.630;2023-07-29T14:16:41;25.50;83.60
26107;DHT22;13866;50.748;12.630;2023-07-29T14:19:06;25.00;81.80
26107;DHT22;13866;50.748;12.630;2023-07-29T14:21:32;25.20;80.50
26107;DHT22;13866;50.748;12.630;2023-07-29T14:23:57;25.10;84.10
26107;DHT22;13866;50.748;12.630;2023-07-29T14:26:23;25.20;81.90
26107;DHT22;13866;50.748;12.630;2023-07-29T14:28:48;25.30;81.70
26107;DHT22;13866;50.748;12.630;2023-07-29T14:31:15;25.30;79.60
26107;DHT22;13866;50.748;12.630;2023-07-29T14:33:42;25.40;82.30
26107;DHT22;13866;50.748;12.630;2023-07-29T14:36:08;25.50;81.90
26107;DHT22;13866;50.748;12.630;2023-07-29T14:38:34;25.70;80.30
26107;DHT22;13866;50.748;12.630;2023-07-29T14:41:00;25.80;78.00
26107;DHT22;13866;50.748;12.630;2023-07-29T14:43:25;25.60;77.20
26107;DHT22;13866;50.748;12.630;2023-07-29T14:45:51;25.50;76.30
26107;DHT22;13866;50.748;12.630;2023-07-29T14:48:16;25.40;76.80
26107;DHT22;13866;50.748;12.630;2023-07-29T14:50:42;25.50;76.80
26107;DHT22;13866;50.748;12.630;2023-07-29T14:53:09;25.30;79.10
26107;DHT22;13866;50.748;12.630;2023-07-29T14:55:36;25.20;74.00
26107;DHT22;13866;50.748;12.630;2023-07-29T14:58:01;25.20;75.30
26107;DHT22;13866;50.748;12.630;2023-07-29T15:00:27;25.10;74.80
26107;DHT22;13866;50.748;12.630;2023-07-29T15:02:53;25.00;74.00
26107;DHT22;13866;50.748;12.630;2023-07-29T15:05:18;25.10;74.30
26107;DHT22;13866;50.748;12.630;2023-07-29T15:07:44;25.00;76.30
26107;DHT22;13866;50.748;12.630;2023-07-29T15:10:09;24.90;78.10
26107;DHT22;13866;50.748;12.630;2023-07-29T15:12:35;24.90;78.80
26107;DHT22;13866;50.748;12.630;2023-07-29T15:15:01;24.90;78.70
26107;DHT22;13866;50.748;12.630;2023-07-29T15:17:26;24.90;80.50
26107;DHT22;13866;50.748;12.630;2023-07-29T15:19:52;24.90;77.60
26107;DHT22;13866;50.748;12.630;2023-07-29T15:22:17;24.80;77.90
26107;DHT22;13866;50.748;12.630;2023-07-29T15:24:43;24.70;78.30